sensor_id;sensor_type;location;lat;lon;timestamp;P1;durP1;ratioP1;P2;durP2;ratioP2
27925;SDS011;15267;47.838;12.128;2024-02-23T00:00:53;7.20;;;3.70;;
27925;SDS011;15267;47.838;12.128;2024-02-23T00:03:19;0.88;;;0.68;;
27925;SDS011;15267;47.838;12.128;2024-02-23T00:05:45;0.50;;;0.32;;
27925;SDS011;15267;47.838;12.128;2024-02-23T00:08:11;1.83;;;0.38;;
27925;SDS011;15267;47.838;12.128;2024-02-23T00:10:37;0.55;;;0.20;;
27925;SDS011;15267;47.838;12.128;2024-02-23T00:13:03;0.45;;;0.38;;
27925;SDS011;15267;47.838;12.128;2024-02-23T00:15:29;0.93;;;0.22;;
27925;SDS011;15267;47.838;12.128;2024-02-23T00:17:55;0.38;;;0.22;;
27925;SDS011;15267;47.838;12.128;2024-02-23T00:20:21;0.25;;;0.20;;
27925;SDS011;15267;47.838;12.128;2024-02-23T00:22:47;1.45;;;0.30;;
27925;SDS011;15267;47.838;12.128;2024-02-23T00:25:13;0.80;;;0.35;;
27925;SDS011;15267;47.838;12.128;2024-02-23T00:27:39;0.52;;;0.20;;
27925;SDS011;15267;47.838;12.128;2024-02-23T00:30:06;0.20;;;0.20;;
27925;SDS011;15267;47.838;12.128;2024-02-23T00:32:33;0.68;;;0.20;;
27925;SDS011;15267;47.838;12.128;2024-02-23T00:34:58;0.20;;;0.20;;
27925;SDS011;15267;47.838;12.128;2024-02-23T00:37:24;0.32;;;0.30;;
27925;SDS011;15267;47.838;12.128;2024-02-23T00:39:50;0.20;;;0.20;;
27925;SDS011;15267;47.838;12.128;2024-02-23T00:42:16;0.52;;;0.20;;
27925;SDS011;15267;47.838;12.128;2024-02-23T00:44:42;0.20;;;0.20;;
27925;SDS011;15267;47.838;12.128;2024-02-23T00:47:08;0.80;;;0.20;;
27925;SDS011;15267;47.838;12.128;2024-02-23T00:49:34;0.50;;;0.30;;
27925;SDS011;15267;47.838;12.128;2024-02-23T00:52:00;0.25;;;0.25;;
27925;SDS011;15267;47.838;12.128;2024-02-23T00:54:26;0.20;;;0.20;;
27925;SDS011;15267;47.838;12.128;2024-02-23T00:56:52;1.08;;;0.20;;
27925;SDS011;15267;47.838;12.128;2024-02-23T00:59:18;0.10;;;0.10;;
27925;SDS011;15267;47.838;12.128;2024-02-23T01:01:44;0.40;;;0.20;;
27925;SDS011;15267;47.838;12.128;2024-02-23T01:04:10;0.38;;;0.25;;
27925;SDS011;15267;47.838;12.128;2024-02-23T01:06:35;1.27;;;0.30;;
27925;SDS011;15267;47.838;12.128;2024-02-23T01:09:01;0.40;;;0.20;;
27925;SDS011;15267;47.838;12.128;2024-02-23T01:11:29;0.25;;;0.10;;
27925;SDS011;15267;47.838;12.128;2024-02-23T01:13:55;0.15;;;0.15;;
27925;SDS011;15267;47.838;12.128;2024-02-23T01:16:21;0.43;;;0.20;;
27925;SDS011;15267;47.838;12.128;2024-02-23T01:18:48;0.13;;;0.13;;
27925;SDS011;15267;47.838;12.128;2024-02-23T01:21:14;0.30;;;0.30;;
27925;SDS011;15267;47.838;12.128;2024-02-23T01:23:40;0.10;;;0.10;;
27925;SDS011;15267;47.838;12.128;2024-02-23T01:26:06;0.10;;;0.10;;
27925;SDS011;15267;47.838;12.128;2024-02-23T01:28:31;0.45;;;0.20;;
27925;SDS011;15267;47.838;12.128;2024-02-23T01:30:58;0.10;;;0.10;;
27925;SDS011;15267;47.838;12.128;2024-02-23T01:33:24;0.10;;;0.10;;
27925;SDS011;15267;47.838;12.128;2024-02-23T01:35:50;0.10;;;0.10;;
27925;SDS011;15267;47.838;12.128;2024-02-23T01:38:16;0.68;;;0.13;;
27925;SDS011;15267;47.838;12.128;2024-02-23T01:40:46;0.17;;;0.13;;
27925;SDS011;15267;47.838;12.128;2024-02-23T01:43:12;0.20;;;0.10;;
27925;SDS011;15267;47.838;12.128;2024-02-23T01:45:38;0.10;;;0.10;;
27925;SDS011;15267;47.838;12.128;2024-02-23T01:48:04;1.17;;;0.10;;
27925;SDS011;15267;47.838;12.128;2024-02-23T01:50:31;0.10;;;0.10;;
27925;SDS011;15267;47.838;12.128;2024-02-23T01:52:59;0.20;;;0.20;;
27925;SDS011;15267;47.838;12.128;2024-02-23T01:55:25;0.10;;;0.10;;
27925;SDS011;15267;47.838;12.128;2024-02-23T01:57:51;0.10;;;0.10;;
27925;SDS011;15267;47.838;12.128;2024-02-23T02:00:18;0.10;;;0.10;;
27925;SDS011;15267;47.838;12.128;2024-02-23T02:02:45;0.28;;;0.10;;
27925;SDS011;15267;47.838;12.128;2024-02-23T02:05:12;0.10;;;0.10;;
27925;SDS011;15267;47.838;12.128;2024-02-23T02:07:38;0.65;;;0.40;;
27925;SDS011;15267;47.838;12.128;2024-02-23T02:10:06;0.10;;;0.10;;
27925;SDS011;15267;47.838;12.128;2024-02-23T02:12:33;0.15;;;0.15;;
27925;SDS011;15267;47.838;12.128;2024-02-23T02:14:59;0.43;;;0.10;;
27925;SDS011;15267;47.838;12.128;2024-02-23T02:17:26;0.10;;;0.10;;
27925;SDS011;15267;47.838;12.128;2024-02-23T02:19:53;1.20;;;0.13;;
27925;SDS011;15267;47.838;12.128;2024-02-23T02:22:19;0.10;;;0.10;;
27925;SDS011;15267;47.838;12.128;2024-02-23T02:24:44;0.32;;;0.10;;
27925;SDS011;15267;47.838;12.128;2024-02-23T02:27:13;0.30;;;0.17;;
27925;SDS011;15267;47.838;12.128;2024-02-23T02:29:38;0.85;;;0.10;;
27925;SDS011;15267;47.838;12.128;2024-02-23T02:32:04;1.17;;;0.43;;
27925;SDS011;15267;47.838;12.128;2024-02-23T02:34:30;0.52;;;0.13;;
27925;SDS011;15267;47.838;12.128;2024-02-23T02:36:56;0.55;;;0.20;;
27925;SDS011;15267;47.838;12.128;2024-02-23T02:39:22;0.13;;;0.13;;
27925;SDS011;15267;47.838;12.128;2024-02-23T02:41:48;0.20;;;0.20;;
27925;SDS011;15267;47.838;12.128;2024-02-23T02:44:14;0.25;;;0.10;;
27925;SDS011;15267;47.838;12.128;2024-02-23T02:46:41;0.20;;;0.20;;
27925;SDS011;15267;47.838;12.128;2024-02-23T02:49:07;0.13;;;0.13;;
27925;SDS011;15267;47.838;12.128;2024-02-23T02:51:33;0.10;;;0.10;;
27925;SDS011;15267;47.838;12.128;2024-02-23T02:53:59;0.10;;;0.10;;
27925;SDS011;15267;47.838;12.128;2024-02-23T02:56:25;0.20;;;0.20;;
27925;SDS011;15267;47.838;12.128;2024-02-23T02:58:51;0.20;;;0.20;;
27925;SDS011;15267;47.838;12.128;2024-02-23T03:01:17;0.10;;;0.10;;
27925;SDS011;15267;47.838;12.128;2024-02-23T03:03:42;0.10;;;0.10;;
27925;SDS011;15267;47.838;12.128;2024-02-23T03:06:08;0.28;;;0.10;;
27925;SDS011;15267;47.838;12.128;2024-02-23T03:08:34;0.28;;;0.10;;
27925;SDS011;15267;47.838;12.128;2024-02-23T03:11:00;0.13;;;0.13;;
27925;SDS011;15267;47.838;12.128;2024-02-23T03:13:27;1.65;;;0.10;;
27925;SDS011;15267;47.838;12.128;2024-02-23T03:15:53;0.10;;;0.10;;
27925;SDS011;15267;47.838;12.128;2024-02-23T03:18:19;0.10;;;0.10;;
27925;SDS011;15267;47.838;12.128;2024-02-23T03:20:45;0.20;;;0.20;;
27925;SDS011;15267;47.838;12.128;2024-02-23T03:23:11;0.45;;;0.10;;
27925;SDS011;15267;47.838;12.128;2024-02-23T03:25:37;0.10;;;0.10;;
27925;SDS011;15267;47.838;12.128;2024-02-23T03:28:03;2.58;;;0.20;;
27925;SDS011;15267;47.838;12.128;2024-02-23T03:30:29;0.32;;;0.20;;
27925;SDS011;15267;47.838;12.128;2024-02-23T03:32:55;0.22;;;0.10;;
27925;SDS011;15267;47.838;12.128;2024-02-23T03:35:21;0.10;;;0.10;;
27925;SDS011;15267;47.838;12.128;2024-02-23T03:37:47;0.22;;;0.17;;
27925;SDS011;15267;47.838;12.128;2024-02-23T03:40:13;0.43;;;0.13;;
27925;SDS011;15267;47.838;12.128;2024-02-23T03:42:39;0.20;;;0.20;;
27925;SDS011;15267;47.838;12.128;2024-02-23T03:45:05;0.50;;;0.20;;
27925;SDS011;15267;47.838;12.128;2024-02-23T03:47:31;0.22;;;0.20;;
27925;SDS011;15267;47.838;12.128;2024-02-23T03:49:57;0.80;;;0.20;;
27925;SDS011;15267;47.838;12.128;2024-02-23T03:52:23;0.20;;;0.20;;
27925;SDS011;15267;47.838;12.128;2024-02-23T03:54:49;0.25;;;0.20;;
27925;SDS011;15267;47.838;12.128;2024-02-23T03:57:16;0.80;;;0.20;;
27925;SDS011;15267;47.838;12.128;2024-02-23T03:59:53;0.60;;;0.30;;
27925;SDS011;15267;47.838;12.128;2024-02-23T04:02:19;1.55;;;0.20;;
27925;SDS011;15267;47.838;12.128;2024-02-23T04:04:45;0.30;;;0.20;;
27925;SDS011;15267;47.838;12.128;2024-02-23T04:07:11;2.22;;;0.20;;
27925;SDS011;15267;47.838;12.128;2024-02-23T04:09:37;0.22;;;0.10;;
27925;SDS011;15267;47.838;12.128;2024-02-23T04:12:03;0.52;;;0.20;;
27925;SDS011;15267;47.838;12.128;2024-02-23T04:14:29;0.10;;;0.10;;
27925;SDS011;15267;47.838;12.128;2024-02-23T04:16:55;0.20;;;0.20;;
27925;SDS011;15267;47.838;12.128;2024-02-23T04:19:21;0.47;;;0.20;;
27925;SDS011;15267;47.838;12.128;2024-02-23T04:21:47;0.30;;;0.30;;
27925;SDS011;15267;47.838;12.128;2024-02-23T04:24:12;0.68;;;0.28;;
27925;SDS011;15267;47.838;12.128;2024-02-23T04:26:38;0.22;;;0.20;;
27925;SDS011;15267;47.838;12.128;2024-02-23T04:29:04;0.73;;;0.20;;
27925;SDS011;15267;47.838;12.128;2024-02-23T04:31:30;0.30;;;0.30;;
27925;SDS011;15267;47.838;12.128;2024-02-23T04:33:56;0.20;;;0.20;;
27925;SDS011;15267;47.838;12.128;2024-02-23T04:36:22;0.30;;;0.20;;
27925;SDS011;15267;47.838;12.128;2024-02-23T04:38:48;0.63;;;0.20;;
27925;SDS011;15267;47.838;12.128;2024-02-23T04:41:14;0.47;;;0.38;;
27925;SDS011;15267;47.838;12.128;2024-02-23T04:43:40;0.17;;;0.17;;
27925;SDS011;15267;47.838;12.128;2024-02-23T04:46:06;0.20;;;0.20;;
27925;SDS011;15267;47.838;12.128;2024-02-23T04:48:32;0.25;;;0.20;;
27925;SDS011;15267;47.838;12.128;2024-02-23T04:50:58;0.20;;;0.20;;
27925;SDS011;15267;47.838;12.128;2024-02-23T04:53:24;0.20;;;0.20;;
27925;SDS011;15267;47.838;12.128;2024-02-23T04:55:50;0.80;;;0.20;;
27925;SDS011;15267;47.838;12.128;2024-02-23T04:58:16;4.55;;;0.15;;
27925;SDS011;15267;47.838;12.128;2024-02-23T05:00:42;0.32;;;0.10;;
27925;SDS011;15267;47.838;12.128;2024-02-23T05:03:08;0.20;;;0.20;;
27925;SDS011;15267;47.838;12.128;2024-02-23T05:05:35;1.65;;;0.30;;
27925;SDS011;15267;47.838;12.128;2024-02-23T05:08:01;0.50;;;0.30;;
27925;SDS011;15267;47.838;12.128;2024-02-23T05:10:27;0.40;;;0.30;;
27925;SDS011;15267;47.838;12.128;2024-02-23T05:12:53;1.35;;;0.57;;
27925;SDS011;15267;47.838;12.128;2024-02-23T05:15:20;0.90;;;0.30;;
27925;SDS011;15267;47.838;12.128;2024-02-23T05:17:46;0.40;;;0.30;;
27925;SDS011;15267;47.838;12.128;2024-02-23T05:20:12;0.52;;;0.30;;
27925;SDS011;15267;47.838;12.128;2024-02-23T05:22:38;0.35;;;0.35;;
27925;SDS011;15267;47.838;12.128;2024-02-23T05:25:04;0.82;;;0.40;;
27925;SDS011;15267;47.838;12.128;2024-02-23T05:27:30;1.58;;;0.50;;
27925;SDS011;15267;47.838;12.128;2024-02-23T05:29:56;0.60;;;0.50;;
27925;SDS011;15267;47.838;12.128;2024-02-23T05:32:22;1.75;;;0.47;;
27925;SDS011;15267;47.838;12.128;2024-02-23T05:34:49;0.30;;;0.30;;
27925;SDS011;15267;47.838;12.128;2024-02-23T05:37:17;0.30;;;0.30;;
27925;SDS011;15267;47.838;12.128;2024-02-23T05:39:43;1.35;;;0.30;;
27925;SDS011;15267;47.838;12.128;2024-02-23T05:42:10;0.20;;;0.20;;
27925;SDS011;15267;47.838;12.128;2024-02-23T05:44:36;0.20;;;0.20;;
27925;SDS011;15267;47.838;12.128;2024-02-23T05:47:02;1.35;;;0.30;;
27925;SDS011;15267;47.838;12.128;2024-02-23T05:49:29;0.30;;;0.20;;
27925;SDS011;15267;47.838;12.128;2024-02-23T05:51:55;0.35;;;0.20;;
27925;SDS011;15267;47.838;12.128;2024-02-23T05:54:21;2.00;;;0.40;;
27925;SDS011;15267;47.838;12.128;2024-02-23T05:56:47;2.13;;;0.40;;
27925;SDS011;15267;47.838;12.128;2024-02-23T05:59:13;0.65;;;0.30;;
27925;SDS011;15267;47.838;12.128;2024-02-23T06:01:39;0.73;;;0.50;;
27925;SDS011;15267;47.838;12.128;2024-02-23T06:04:05;0.82;;;0.47;;
27925;SDS011;15267;47.838;12.128;2024-02-23T06:06:31;0.30;;;0.30;;
27925;SDS011;15267;47.838;12.128;2024-02-23T06:08:57;0.85;;;0.40;;
27925;SDS011;15267;47.838;12.128;2024-02-23T06:11:23;0.50;;;0.40;;
27925;SDS011;15267;47.838;12.128;2024-02-23T06:13:49;2.45;;;1.73;;
27925;SDS011;15267;47.838;12.128;2024-02-23T06:16:15;2.85;;;2.30;;
27925;SDS011;15267;47.838;12.128;2024-02-23T06:18:41;2.35;;;1.70;;
27925;SDS011;15267;47.838;12.128;2024-02-23T06:21:10;2.22;;;1.95;;
27925;SDS011;15267;47.838;12.128;2024-02-23T06:23:37;1.38;;;0.75;;
27925;SDS011;15267;47.838;12.128;2024-02-23T06:26:04;0.75;;;0.65;;
27925;SDS011;15267;47.838;12.128;2024-02-23T06:28:30;0.63;;;0.30;;
27925;SDS011;15267;47.838;12.128;2024-02-23T06:30:56;2.38;;;0.70;;
27925;SDS011;15267;47.838;12.128;2024-02-23T06:33:22;2.53;;;0.50;;
27925;SDS011;15267;47.838;12.128;2024-02-23T06:35:48;0.65;;;0.50;;
27925;SDS011;15267;47.838;12.128;2024-02-23T06:38:14;3.05;;;1.98;;
27925;SDS011;15267;47.838;12.128;2024-02-23T06:40:40;1.23;;;0.98;;
27925;SDS011;15267;47.838;12.128;2024-02-23T06:43:06;3.70;;;1.98;;
27925;SDS011;15267;47.838;12.128;2024-02-23T06:45:32;2.47;;;1.77;;
27925;SDS011;15267;47.838;12.128;2024-02-23T06:47:58;2.17;;;1.40;;
27925;SDS011;15267;47.838;12.128;2024-02-23T06:50:24;1.45;;;1.08;;
27925;SDS011;15267;47.838;12.128;2024-02-23T06:52:50;2.38;;;1.10;;
27925;SDS011;15267;47.838;12.128;2024-02-23T06:55:16;0.82;;;0.55;;
27925;SDS011;15267;47.838;12.128;2024-02-23T06:57:42;1.52;;;0.82;;
27925;SDS011;15267;47.838;12.128;2024-02-23T07:00:08;1.67;;;0.90;;
27925;SDS011;15267;47.838;12.128;2024-02-23T07:02:34;3.15;;;2.00;;
27925;SDS011;15267;47.838;12.128;2024-02-23T07:05:01;10.15;;;8.05;;
27925;SDS011;15267;47.838;12.128;2024-02-23T07:07:29;1.67;;;1.45;;
27925;SDS011;15267;47.838;12.128;2024-02-23T07:09:55;2.42;;;1.38;;
27925;SDS011;15267;47.838;12.128;2024-02-23T07:12:21;1.08;;;0.70;;
27925;SDS011;15267;47.838;12.128;2024-02-23T07:14:48;2.53;;;0.50;;
27925;SDS011;15267;47.838;12.128;2024-02-23T07:17:17;1.38;;;0.50;;
27925;SDS011;15267;47.838;12.128;2024-02-23T07:19:43;1.75;;;0.55;;
27925;SDS011;15267;47.838;12.128;2024-02-23T07:22:09;0.63;;;0.40;;
27925;SDS011;15267;47.838;12.128;2024-02-23T07:24:39;1.67;;;0.52;;
27925;SDS011;15267;47.838;12.128;2024-02-23T07:27:05;1.33;;;0.50;;
27925;SDS011;15267;47.838;12.128;2024-02-23T07:29:31;1.55;;;0.60;;
27925;SDS011;15267;47.838;12.128;2024-02-23T07:31:57;1.75;;;0.77;;
27925;SDS011;15267;47.838;12.128;2024-02-23T07:34:23;1.45;;;0.50;;
27925;SDS011;15267;47.838;12.128;2024-02-23T07:36:52;2.60;;;0.50;;
27925;SDS011;15267;47.838;12.128;2024-02-23T07:39:19;1.48;;;0.50;;
27925;SDS011;15267;47.838;12.128;2024-02-23T07:41:44;1.33;;;0.60;;
27925;SDS011;15267;47.838;12.128;2024-02-23T07:44:10;1.92;;;0.63;;
27925;SDS011;15267;47.838;12.128;2024-02-23T07:46:37;1.83;;;0.80;;
27925;SDS011;15267;47.838;12.128;2024-02-23T07:49:03;0.75;;;0.70;;
27925;SDS011;15267;47.838;12.128;2024-02-23T07:51:29;1.23;;;0.80;;
27925;SDS011;15267;47.838;12.128;2024-02-23T07:53:55;1.80;;;1.10;;
27925;SDS011;15267;47.838;12.128;2024-02-23T07:56:21;1.80;;;0.88;;
27925;SDS011;15267;47.838;12.128;2024-02-23T07:58:47;1.77;;;0.90;;
27925;SDS011;15267;47.838;12.128;2024-02-23T08:01:16;1.67;;;0.80;;
27925;SDS011;15267;47.838;12.128;2024-02-23T08:03:42;1.75;;;0.70;;
27925;SDS011;15267;47.838;12.128;2024-02-23T08:06:08;3.53;;;1.20;;
27925;SDS011;15267;47.838;12.128;2024-02-23T08:08:35;1.48;;;1.00;;
27925;SDS011;15267;47.838;12.128;2024-02-23T08:11:01;2.90;;;1.70;;
27925;SDS011;15267;47.838;12.128;2024-02-23T08:13:28;2.38;;;1.75;;
27925;SDS011;15267;47.838;12.128;2024-02-23T08:15:54;1.48;;;1.30;;
27925;SDS011;15267;47.838;12.128;2024-02-23T08:18:20;5.15;;;3.28;;
27925;SDS011;15267;47.838;12.128;2024-02-23T08:20:47;4.50;;;0.90;;
27925;SDS011;15267;47.838;12.128;2024-02-23T08:23:13;0.60;;;0.60;;
27925;SDS011;15267;47.838;12.128;2024-02-23T08:25:39;2.70;;;1.00;;
27925;SDS011;15267;47.838;12.128;2024-02-23T08:28:05;2.45;;;1.00;;
27925;SDS011;15267;47.838;12.128;2024-02-23T08:30:31;3.67;;;2.28;;
27925;SDS011;15267;47.838;12.128;2024-02-23T08:32:57;3.85;;;2.58;;
27925;SDS011;15267;47.838;12.128;2024-02-23T08:35:23;4.60;;;2.60;;
27925;SDS011;15267;47.838;12.128;2024-02-23T08:37:49;3.75;;;2.70;;
27925;SDS011;15267;47.838;12.128;2024-02-23T08:40:15;2.45;;;1.00;;
27925;SDS011;15267;47.838;12.128;2024-02-23T08:42:41;1.48;;;0.80;;
27925;SDS011;15267;47.838;12.128;2024-02-23T08:45:07;1.73;;;0.90;;
27925;SDS011;15267;47.838;12.128;2024-02-23T08:47:35;1.98;;;0.80;;
27925;SDS011;15267;47.838;12.128;2024-02-23T08:50:01;1.25;;;0.80;;
27925;SDS011;15267;47.838;12.128;2024-02-23T08:52:27;2.03;;;0.93;;
27925;SDS011;15267;47.838;12.128;2024-02-23T08:54:53;3.35;;;1.05;;
27925;SDS011;15267;47.838;12.128;2024-02-23T08:57:19;2.53;;;1.25;;
27925;SDS011;15267;47.838;12.128;2024-02-23T08:59:47;3.80;;;1.40;;
27925;SDS011;15267;47.838;12.128;2024-02-23T09:02:14;3.25;;;1.23;;
27925;SDS011;15267;47.838;12.128;2024-02-23T09:04:40;1.58;;;1.30;;
27925;SDS011;15267;47.838;12.128;2024-02-23T09:07:06;2.95;;;1.50;;
27925;SDS011;15267;47.838;12.128;2024-02-23T09:09:32;4.38;;;1.90;;
27925;SDS011;15267;47.838;12.128;2024-02-23T09:11:58;1.88;;;1.40;;
27925;SDS011;15267;47.838;12.128;2024-02-23T09:14:24;2.65;;;1.30;;
27925;SDS011;15267;47.838;12.128;2024-02-23T09:16:50;2.17;;;1.10;;
27925;SDS011;15267;47.838;12.128;2024-02-23T09:19:17;2.50;;;0.60;;
27925;SDS011;15267;47.838;12.128;2024-02-23T09:21:43;1.75;;;0.80;;
27925;SDS011;15267;47.838;12.128;2024-02-23T09:24:09;3.28;;;1.42;;
27925;SDS011;15267;47.838;12.128;2024-02-23T09:26:35;0.98;;;0.80;;
27925;SDS011;15267;47.838;12.128;2024-02-23T09:29:01;2.95;;;1.70;;
27925;SDS011;15267;47.838;12.128;2024-02-23T09:31:27;2.55;;;1.65;;
27925;SDS011;15267;47.838;12.128;2024-02-23T09:33:54;7.43;;;2.80;;
27925;SDS011;15267;47.838;12.128;2024-02-23T09:36:20;4.63;;;2.40;;
27925;SDS011;15267;47.838;12.128;2024-02-23T09:38:47;2.45;;;1.40;;
27925;SDS011;15267;47.838;12.128;2024-02-23T09:41:20;8.20;;;4.15;;
27925;SDS011;15267;47.838;12.128;2024-02-23T09:43:46;1.75;;;0.88;;
27925;SDS011;15267;47.838;12.128;2024-02-23T09:46:13;1.45;;;1.00;;
27925;SDS011;15267;47.838;12.128;2024-02-23T09:48:40;1.30;;;0.75;;
27925;SDS011;15267;47.838;12.128;2024-02-23T09:51:06;2.08;;;0.95;;
27925;SDS011;15267;47.838;12.128;2024-02-23T09:53:33;1.38;;;0.80;;
27925;SDS011;15267;47.838;12.128;2024-02-23T09:55:59;4.03;;;1.13;;
27925;SDS011;15267;47.838;12.128;2024-02-23T09:58:25;1.85;;;0.60;;
27925;SDS011;15267;47.838;12.128;2024-02-23T10:00:54;1.60;;;0.70;;
27925;SDS011;15267;47.838;12.128;2024-02-23T10:03:21;2.65;;;1.63;;
27925;SDS011;15267;47.838;12.128;2024-02-23T10:05:50;3.38;;;1.10;;
27925;SDS011;15267;47.838;12.128;2024-02-23T10:08:16;2.08;;;1.10;;
27925;SDS011;15267;47.838;12.128;2024-02-23T10:10:45;1.02;;;0.73;;
27925;SDS011;15267;47.838;12.128;2024-02-23T10:13:11;2.65;;;0.77;;
27925;SDS011;15267;47.838;12.128;2024-02-23T10:15:37;1.15;;;0.70;;
27925;SDS011;15267;47.838;12.128;2024-02-23T10:18:03;2.30;;;2.00;;
27925;SDS011;15267;47.838;12.128;2024-02-23T10:20:30;2.30;;;1.85;;
27925;SDS011;15267;47.838;12.128;2024-02-23T10:22:56;1.30;;;1.00;;
27925;SDS011;15267;47.838;12.128;2024-02-23T10:25:22;2.70;;;1.40;;
27925;SDS011;15267;47.838;12.128;2024-02-23T10:27:48;1.42;;;0.90;;
27925;SDS011;15267;47.838;12.128;2024-02-23T10:30:14;1.02;;;0.50;;
27925;SDS011;15267;47.838;12.128;2024-02-23T10:32:40;2.25;;;0.57;;
27925;SDS011;15267;47.838;12.128;2024-02-23T10:35:16;3.85;;;1.05;;
27925;SDS011;15267;47.838;12.128;2024-02-23T10:37:42;1.20;;;0.80;;
27925;SDS011;15267;47.838;12.128;2024-02-23T10:40:11;2.60;;;0.90;;
27925;SDS011;15267;47.838;12.128;2024-02-23T10:42:37;2.08;;;0.80;;
27925;SDS011;15267;47.838;12.128;2024-02-23T10:45:04;1.92;;;1.00;;
27925;SDS011;15267;47.838;12.128;2024-02-23T10:47:31;0.95;;;0.40;;
27925;SDS011;15267;47.838;12.128;2024-02-23T10:49:59;2.92;;;0.70;;
27925;SDS011;15267;47.838;12.128;2024-02-23T10:52:29;0.70;;;0.60;;
27925;SDS011;15267;47.838;12.128;2024-02-23T10:54:56;1.67;;;0.77;;
27925;SDS011;15267;47.838;12.128;2024-02-23T10:57:23;2.80;;;0.93;;
27925;SDS011;15267;47.838;12.128;2024-02-23T10:59:49;1.77;;;0.65;;
27925;SDS011;15267;47.838;12.128;2024-02-23T11:02:16;2.15;;;0.70;;
27925;SDS011;15267;47.838;12.128;2024-02-23T11:04:45;0.50;;;0.50;;
27925;SDS011;15267;47.838;12.128;2024-02-23T11:07:17;1.03;;;0.70;;
27925;SDS011;15267;47.838;12.128;2024-02-23T11:09:48;3.20;;;1.17;;
27925;SDS011;15267;47.838;12.128;2024-02-23T11:12:21;1.25;;;0.63;;
27925;SDS011;15267;47.838;12.128;2024-02-23T11:14:49;0.60;;;0.60;;
27925;SDS011;15267;47.838;12.128;2024-02-23T11:17:18;2.10;;;1.90;;
27925;SDS011;15267;47.838;12.128;2024-02-23T11:19:45;1.10;;;0.70;;
27925;SDS011;15267;47.838;12.128;2024-02-23T11:22:12;1.02;;;0.80;;
27925;SDS011;15267;47.838;12.128;2024-02-23T11:24:42;1.30;;;0.75;;
27925;SDS011;15267;47.838;12.128;2024-02-23T11:27:13;2.63;;;0.98;;
27925;SDS011;15267;47.838;12.128;2024-02-23T11:29:42;1.03;;;0.80;;
27925;SDS011;15267;47.838;12.128;2024-02-23T11:32:15;3.28;;;1.60;;
27925;SDS011;15267;47.838;12.128;2024-02-23T11:34:41;1.80;;;1.40;;
27925;SDS011;15267;47.838;12.128;2024-02-23T11:37:09;2.10;;;1.35;;
27925;SDS011;15267;47.838;12.128;2024-02-23T11:39:37;2.20;;;1.20;;
27925;SDS011;15267;47.838;12.128;2024-02-23T11:42:04;1.90;;;1.15;;
27925;SDS011;15267;47.838;12.128;2024-02-23T11:44:30;6.00;;;1.88;;
27925;SDS011;15267;47.838;12.128;2024-02-23T11:46:56;3.13;;;2.33;;
27925;SDS011;15267;47.838;12.128;2024-02-23T11:49:30;3.92;;;3.20;;
27925;SDS011;15267;47.838;12.128;2024-02-23T11:51:56;3.23;;;2.27;;
27925;SDS011;15267;47.838;12.128;2024-02-23T11:54:22;5.85;;;1.98;;
27925;SDS011;15267;47.838;12.128;2024-02-23T11:56:48;4.13;;;1.42;;
27925;SDS011;15267;47.838;12.128;2024-02-23T11:59:15;6.78;;;1.50;;
27925;SDS011;15267;47.838;12.128;2024-02-23T12:01:41;6.32;;;1.50;;
27925;SDS011;15267;47.838;12.128;2024-02-23T12:04:07;2.85;;;1.60;;
27925;SDS011;15267;47.838;12.128;2024-02-23T12:06:33;3.90;;;1.80;;
27925;SDS011;15267;47.838;12.128;2024-02-23T12:09:00;2.60;;;1.45;;
27925;SDS011;15267;47.838;12.128;2024-02-23T12:11:26;2.35;;;1.50;;
27925;SDS011;15267;47.838;12.128;2024-02-23T12:13:52;1.92;;;1.20;;
27925;SDS011;15267;47.838;12.128;2024-02-23T12:16:20;5.10;;;2.20;;
27925;SDS011;15267;47.838;12.128;2024-02-23T12:18:52;8.00;;;2.50;;
27925;SDS011;15267;47.838;12.128;2024-02-23T12:21:19;6.90;;;2.97;;
27925;SDS011;15267;47.838;12.128;2024-02-23T12:23:45;4.45;;;2.28;;
27925;SDS011;15267;47.838;12.128;2024-02-23T12:26:16;4.80;;;1.60;;
27925;SDS011;15267;47.838;12.128;2024-02-23T12:28:42;7.50;;;2.00;;
27925;SDS011;15267;47.838;12.128;2024-02-23T12:31:09;3.53;;;1.60;;
27925;SDS011;15267;47.838;12.128;2024-02-23T12:33:36;2.97;;;2.28;;
27925;SDS011;15267;47.838;12.128;2024-02-23T12:36:03;5.72;;;2.60;;
27925;SDS011;15267;47.838;12.128;2024-02-23T12:38:29;5.10;;;3.25;;
27925;SDS011;15267;47.838;12.128;2024-02-23T12:40:55;4.53;;;3.15;;
27925;SDS011;15267;47.838;12.128;2024-02-23T12:43:22;5.03;;;3.97;;
27925;SDS011;15267;47.838;12.128;2024-02-23T12:45:52;6.90;;;4.05;;
27925;SDS011;15267;47.838;12.128;2024-02-23T12:48:18;8.75;;;4.30;;
27925;SDS011;15267;47.838;12.128;2024-02-23T12:50:45;7.28;;;4.10;;
27925;SDS011;15267;47.838;12.128;2024-02-23T12:53:33;3.67;;;2.30;;
27925;SDS011;15267;47.838;12.128;2024-02-23T12:55:58;5.63;;;2.65;;
27925;SDS011;15267;47.838;12.128;2024-02-23T12:58:24;5.95;;;2.40;;
27925;SDS011;15267;47.838;12.128;2024-02-23T13:00:50;4.80;;;1.90;;
27925;SDS011;15267;47.838;12.128;2024-02-23T13:03:16;2.08;;;0.90;;
27925;SDS011;15267;47.838;12.128;2024-02-23T13:05:42;4.13;;;1.40;;
27925;SDS011;15267;47.838;12.128;2024-02-23T13:08:08;1.70;;;1.23;;
27925;SDS011;15267;47.838;12.128;2024-02-23T13:10:34;1.35;;;0.95;;
27925;SDS011;15267;47.838;12.128;2024-02-23T13:13:00;2.53;;;0.88;;
27925;SDS011;15267;47.838;12.128;2024-02-23T13:15:26;1.90;;;1.77;;
27925;SDS011;15267;47.838;12.128;2024-02-23T13:17:52;3.40;;;2.33;;
27925;SDS011;15267;47.838;12.128;2024-02-23T13:20:18;3.30;;;2.60;;
27925;SDS011;15267;47.838;12.128;2024-02-23T13:22:44;2.80;;;2.38;;
27925;SDS011;15267;47.838;12.128;2024-02-23T13:25:10;5.47;;;4.50;;
27925;SDS011;15267;47.838;12.128;2024-02-23T13:27:36;3.45;;;2.83;;
27925;SDS011;15267;47.838;12.128;2024-02-23T13:30:03;2.33;;;1.70;;
27925;SDS011;15267;47.838;12.128;2024-02-23T13:32:29;9.50;;;7.15;;
27925;SDS011;15267;47.838;12.128;2024-02-23T13:34:55;14.40;;;11.00;;
27925;SDS011;15267;47.838;12.128;2024-02-23T13:37:20;7.00;;;4.72;;
27925;SDS011;15267;47.838;12.128;2024-02-23T13:39:46;8.18;;;5.35;;
27925;SDS011;15267;47.838;12.128;2024-02-23T13:42:13;12.68;;;7.95;;
27925;SDS011;15267;47.838;12.128;2024-02-23T13:44:39;23.13;;;14.93;;
27925;SDS011;15267;47.838;12.128;2024-02-23T13:47:05;20.17;;;12.02;;
27925;SDS011;15267;47.838;12.128;2024-02-23T13:49:32;20.77;;;10.95;;
27925;SDS011;15267;47.838;12.128;2024-02-23T13:51:57;23.73;;;14.10;;
27925;SDS011;15267;47.838;12.128;2024-02-23T13:54:23;8.45;;;5.05;;
27925;SDS011;15267;47.838;12.128;2024-02-23T13:56:49;2.55;;;2.08;;
27925;SDS011;15267;47.838;12.128;2024-02-23T13:59:15;1.88;;;1.30;;
27925;SDS011;15267;47.838;12.128;2024-02-23T14:01:41;3.28;;;0.90;;
27925;SDS011;15267;47.838;12.128;2024-02-23T14:04:07;1.02;;;0.80;;
27925;SDS011;15267;47.838;12.128;2024-02-23T14:06:33;1.05;;;0.60;;
27925;SDS011;15267;47.838;12.128;2024-02-23T14:08:59;2.97;;;1.10;;
27925;SDS011;15267;47.838;12.128;2024-02-23T14:11:25;1.55;;;1.10;;
27925;SDS011;15267;47.838;12.128;2024-02-23T14:13:51;2.75;;;1.20;;
27925;SDS011;15267;47.838;12.128;2024-02-23T14:16:17;1.33;;;1.00;;
27925;SDS011;15267;47.838;12.128;2024-02-23T14:18:43;1.38;;;1.00;;
27925;SDS011;15267;47.838;12.128;2024-02-23T14:21:10;2.65;;;1.33;;
27925;SDS011;15267;47.838;12.128;2024-02-23T14:23:36;2.85;;;2.50;;
27925;SDS011;15267;47.838;12.128;2024-02-23T14:26:05;1.50;;;1.40;;
27925;SDS011;15267;47.838;12.128;2024-02-23T14:28:32;2.65;;;2.00;;